Time;durP1;ratioP1;P1;durP2;ratioP2;P2;SDS_P1;SDS_P2;PMS_P1;PMS_P2;Temp;Humidity;BMP_temperature;BMP_pressure;BME280_temperature;BME280_humidity;BME280_pressure;Samples;Min_cycle;Max_cycle;Signal;HPM_P1;HPM_P2
2022/11/21 00:00:16;;;;;;;52.75;24.67;;;;;;;-5.89;75.02;99404.44;2159337;81;21064;-77
2022/11/21 00:03:17;;;;;;;58.02;24.63;;;;;;;-5.81;75.10;99405.34;2154703;81;21114;-75
2022/11/21 00:06:19;;;;;;;58.13;24.87;;;;;;;-5.81;74.81;99413.09;2160304;81;21062;-78
2022/11/21 00:09:20;;;;;;;49.00;24.12;;;;;;;-5.87;74.81;99415.53;2130035;81;20961;-77
2022/11/21 00:12:21;;;;;;;59.05;26.00;;;;;;;-5.89;74.63;99426.41;2163052;81;21625;-74
2022/11/21 00:15:24;;;;;;;53.60;24.80;;;;;;;-5.94;74.55;99424.57;2154256;81;21609;-76
2022/11/21 00:18:25;;;;;;;53.23;23.32;;;;;;;-5.96;74.92;99414.77;2148654;81;21064;-78
2022/11/21 00:21:26;;;;;;;52.25;24.60;;;;;;;-5.90;75.00;99421.33;2167481;81;20982;-75
2022/11/21 00:24:27;;;;;;;60.67;26.02;;;;;;;-5.94;74.98;99421.13;2165241;81;20948;-75
2022/11/21 00:27:28;;;;;;;61.75;28.40;;;;;;;-5.92;75.00;99417.52;2159353;81;21332;-76
2022/11/21 00:30:30;;;;;;;59.75;26.75;;;;;;;-5.93;75.30;99413.28;2159486;81;21532;-74
2022/11/21 00:33:33;;;;;;;63.05;28.25;;;;;;;-5.94;75.31;99404.33;2159395;81;21060;-74
2022/11/21 00:36:34;;;;;;;70.70;30.17;;;;;;;-5.97;75.45;99404.50;2166126;81;21063;-81
2022/11/21 00:39:35;;;;;;;70.17;31.80;;;;;;;-6.01;75.67;99395.25;2156702;81;21019;-75
2022/11/21 00:42:36;;;;;;;83.95;36.58;;;;;;;-6.00;75.78;99399.48;2158525;81;21050;-74
2022/11/21 00:45:39;;;;;;;81.28;33.40;;;;;;;-6.08;75.65;99396.04;2145152;82;21419;-75
2022/11/21 00:48:40;;;;;;;77.15;32.98;;;;;;;-6.18;75.63;99390.95;2117267;82;20965;-75
2022/11/21 00:51:41;;;;;;;73.42;31.23;;;;;;;-6.25;76.13;99390.45;2179108;80;21062;-84
2022/11/21 00:54:42;;;;;;;85.35;33.75;;;;;;;-6.26;76.20;99391.80;2168401;81;21089;-75
2022/11/21 00:57:43;;;;;;;81.65;34.05;;;;;;;-6.24;76.47;99388.69;2175137;81;21082;-75
2022/11/21 01:00:44;;;;;;;75.55;32.48;;;;;;;-6.19;76.64;99388.01;2177668;80;21558;-76
2022/11/21 01:03:45;;;;;;;80.38;33.65;;;;;;;-6.17;76.27;99380.99;2198090;80;21132;-75
2022/11/21 01:06:46;;;;;;;75.37;32.23;;;;;;;-6.12;76.48;99384.18;2185337;80;21560;-74
2022/11/21 01:09:47;;;;;;;69.20;29.77;;;;;;;-6.08;76.51;99380.54;2189679;80;21306;-77
2022/11/21 01:12:48;;;;;;;77.60;33.73;;;;;;;-6.17;76.50;99380.53;2190118;80;21042;-75
2022/11/21 01:15:49;;;;;;;78.13;33.90;;;;;;;-6.18;76.80;99362.55;2157924;81;21600;-75
2022/11/21 01:18:51;;;;;;;81.02;34.80;;;;;;;-6.23;76.71;99366.65;2195508;80;20975;-74
2022/11/21 01:21:52;;;;;;;71.33;32.38;;;;;;;-6.27;76.75;99371.61;2180287;80;21045;-76
2022/11/21 01:24:53;;;;;;;88.40;36.13;;;;;;;-6.30;76.75;99365.77;2177563;80;21560;-76
2022/11/21 01:27:54;;;;;;;107.05;39.05;;;;;;;-6.34;76.85;99363.78;2181643;80;21023;-75
2022/11/21 01:30:55;;;;;;;80.60;35.87;;;;;;;-6.38;76.84;99351.50;2181884;80;21060;-74
2022/11/21 01:33:58;;;;;;;82.35;34.83;;;;;;;-6.35;76.97;99343.59;2178376;80;21050;-76
2022/11/21 01:37:00;;;;;;;76.05;33.70;;;;;;;-6.39;77.04;99331.77;2181000;80;20964;-75
2022/11/21 01:40:01;;;;;;;76.23;32.37;;;;;;;-6.38;77.26;99339.05;2185219;80;21048;-75
2022/11/21 01:43:10;;;;;;;75.20;32.53;;;;;;;-6.32;77.53;99330.98;2154911;81;20958;-75
2022/11/21 01:46:14;;;;;;;81.07;32.87;;;;;;;-6.25;77.84;99328.47;2181649;81;21043;-74
2022/11/21 01:49:26;;;;;;;73.92;32.13;;;;;;;-6.15;78.12;99323.65;2184776;81;21044;-75
2022/11/21 01:52:30;;;;;;;68.42;31.85;;;;;;;-6.05;78.31;99314.51;2178045;81;21013;-74
2022/11/21 01:55:32;;;;;;;74.62;31.00;;;;;;;-5.93;78.41;99321.56;2191213;80;21048;-74
2022/11/21 01:58:35;;;;;;;69.07;30.43;;;;;;;-5.82;78.52;99317.58;2179590;81;21922;-76
2022/11/21 02:01:37;;;;;;;72.32;30.48;;;;;;;-5.70;78.66;99312.56;2159683;82;21049;-75
2022/11/21 02:04:41;;;;;;;59.60;27.25;;;;;;;-5.60;78.83;99304.30;2190281;79;21071;-74
2022/11/21 02:07:46;;;;;;;68.35;30.23;;;;;;;-5.50;78.85;99297.70;2189860;79;20978;-74
2022/11/21 02:11:09;;;;;;;63.83;29.67;;;;;;;-5.39;78.90;99299.70;2193624;79;21735;-75
2022/11/21 02:14:11;;;;;;;65.72;28.87;;;;;;;-5.24;79.08;99282.87;2194569;79;21088;-75
2022/11/21 02:17:12;;;;;;;67.85;30.62;;;;;;;-5.08;79.10;99279.39;2190659;79;21068;-74
2022/11/21 02:20:17;;;;;;;58.45;27.20;;;;;;;-4.90;79.25;99287.36;2222554;79;21535;-75
2022/11/21 02:23:33;;;;;;;59.95;28.95;;;;;;;-4.80;79.11;99281.20;2166663;81;20981;-75
2022/11/21 02:26:34;;;;;;;61.98;29.45;;;;;;;-4.73;79.19;99279.91;2167886;81;21005;-75
2022/11/21 02:29:38;;;;;;;61.37;28.62;;;;;;;-4.62;79.32;99272.34;2180803;81;21502;-75
2022/11/21 02:32:48;;;;;;;60.88;29.52;;;;;;;-4.53;79.40;99262.75;2216096;79;21253;-82
2022/11/21 02:36:03;;;;;;;57.40;26.60;;;;;;;-4.37;79.60;99273.46;2196915;80;21634;-75
2022/11/21 02:39:12;;;;;;;67.65;29.50;;;;;;;-4.24;79.55;99264.50;2198360;80;21062;-78
2022/11/21 02:42:33;;;;;;;64.42;30.82;;;;;;;-4.22;79.47;99272.55;2191473;80;20990;-76
2022/11/21 02:45:43;;;;;;;64.27;31.52;;;;;;;-4.20;79.51;99271.97;2197593;80;21083;-75
2022/11/21 02:48:45;;;;;;;70.78;31.68;;;;;;;-4.20;79.56;99269.37;2190404;80;21099;-76
2022/11/21 02:51:47;;;;;;;63.65;31.52;;;;;;;-4.18;79.73;99257.17;2195778;80;21528;-77
2022/11/21 02:54:48;;;;;;;65.50;29.80;;;;;;;-4.17;79.83;99247.16;2192153;80;21014;-75
2022/11/21 02:57:53;;;;;;;64.27;30.82;;;;;;;-4.15;79.95;99249.67;2178771;80;21061;-75
2022/11/21 03:00:54;;;;;;;55.00;26.48;;;;;;;-4.10;80.06;99233.39;2179721;80;21009;-76
2022/11/21 03:03:55;;;;;;;53.68;24.60;;;;;;;-4.06;80.22;99229.66;2174881;80;21076;-75
2022/11/21 03:06:56;;;;;;;56.37;26.52;;;;;;;-4.01;80.31;99223.73;2169992;80;21076;-78
2022/11/21 03:09:57;;;;;;;61.20;26.23;;;;;;;-3.96;80.37;99218.27;2176115;80;21539;-75
2022/11/21 03:13:01;;;;;;;54.15;26.07;;;;;;;-3.90;80.46;99211.40;2184082;80;21071;-75
2022/11/21 03:16:02;;;;;;;57.80;26.82;;;;;;;-3.81;80.59;99223.77;2184316;80;21092;-75
2022/11/21 03:19:03;;;;;;;56.65;25.17;;;;;;;-3.70;80.51;99221.79;2176897;80;21064;-79
2022/11/21 03:22:04;;;;;;;53.50;26.17;;;;;;;-3.62;80.51;99209.98;2180645;80;21040;-76
2022/11/21 03:25:06;;;;;;;50.48;23.80;;;;;;;-3.51;80.61;99206.70;2169658;80;21619;-75
2022/11/21 03:28:10;;;;;;;55.38;26.12;;;;;;;-3.42;80.58;99198.31;2164226;80;21044;-75
2022/11/21 03:31:10;;;;;;;50.63;25.10;;;;;;;-3.34;80.56;99200.41;2181140;80;21540;-76
2022/11/21 03:34:11;;;;;;;49.35;22.95;;;;;;;-3.26;80.73;99189.06;2173154;80;20997;-76
2022/11/21 03:37:12;;;;;;;51.77;23.92;;;;;;;-3.18;80.83;99182.91;2172308;80;21115;-79
2022/11/21 03:40:13;;;;;;;52.98;25.68;;;;;;;-3.11;80.83;99174.70;2169455;80;20982;-79
2022/11/21 03:43:15;;;;;;;50.70;24.87;;;;;;;-3.09;80.75;99171.08;2176201;80;21036;-75
2022/11/21 03:46:16;;;;;;;51.25;24.45;;;;;;;-3.04;80.77;99172.04;2176995;80;21544;-75
2022/11/21 03:49:17;;;;;;;49.90;24.00;;;;;;;-2.98;80.87;99160.80;2184731;80;21016;-75
2022/11/21 03:52:18;;;;;;;55.78;25.72;;;;;;;-2.94;80.82;99154.92;2174042;80;21568;-75
2022/11/21 03:55:19;;;;;;;55.75;25.97;;;;;;;-2.89;80.88;99146.36;2175665;80;21076;-76
2022/11/21 03:58:20;;;;;;;53.73;25.45;;;;;;;-2.86;80.97;99139.66;2184055;80;21036;-76
2022/11/21 04:01:23;;;;;;;53.92;24.55;;;;;;;-2.82;80.99;99139.79;2185199;81;21051;-75
2022/11/21 04:04:24;;;;;;;54.90;25.27;;;;;;;-2.79;81.10;99133.11;2183381;81;20994;-76
2022/11/21 04:07:25;;;;;;;49.23;24.15;;;;;;;-2.76;81.25;99129.00;2181077;81;21041;-76
2022/11/21 04:10:26;;;;;;;50.40;23.90;;;;;;;-2.73;81.26;99117.10;2187622;81;20998;-75
2022/11/21 04:13:26;;;;;;;52.40;26.12;;;;;;;-2.68;81.34;99118.06;2183502;81;21076;-76
2022/11/21 04:16:27;;;;;;;54.95;25.45;;;;;;;-2.65;81.26;99117.02;2187174;81;21067;-77
2022/11/21 04:19:28;;;;;;;;;;;;;;;-2.62;81.25;99110.31;2186646;81;21025;-75
2022/11/21 04:22:29;;;;;;;56.80;27.85;;;;;;;-2.61;81.21;99099.83;2184235;81;20156;-75
2022/11/21 04:25:31;;;;;;;56.90;26.33;;;;;;;-2.69;81.26;99080.53;2178052;81;21057;-79
2022/11/21 04:28:32;;;;;;;54.63;26.10;;;;;;;-2.58;81.39;99090.98;2181979;81;21018;-76
2022/11/21 04:31:33;;;;;;;62.00;27.90;;;;;;;-2.58;81.25;99094.89;2181303;81;20999;-76
2022/11/21 04:34:33;;;;;;;57.62;26.30;;;;;;;-2.56;81.40;99088.65;2181349;81;21000;-75
2022/11/21 04:37:34;;;;;;;59.77;28.55;;;;;;;-2.54;81.10;99095.02;2180590;81;21096;-76
2022/11/21 04:40:36;;;;;;;53.25;26.23;;;;;;;-2.54;81.09;99086.75;2179965;80;20992;-78
2022/11/21 04:43:37;;;;;;;56.37;26.85;;;;;;;-2.53;81.13;99088.91;2185600;81;21062;-76
2022/11/21 04:46:38;;;;;;;55.83;26.37;;;;;;;-2.51;81.05;99076.14;2188864;81;20957;-76
2022/11/21 04:49:39;;;;;;;57.88;26.75;;;;;;;-2.55;80.91;99071.29;2181150;80;21787;-76
2022/11/21 04:52:41;;;;;;;53.68;24.30;;;;;;;-2.57;80.98;99070.09;2186538;80;21508;-76
2022/11/21 04:55:42;;;;;;;54.33;26.80;;;;;;;-2.57;81.04;99061.47;2181598;81;21549;-76
2022/11/21 04:58:43;;;;;;;57.85;26.75;;;;;;;-2.57;81.17;99049.31;2165785;81;21028;-87
2022/11/21 05:01:44;;;;;;;51.50;23.67;;;;;;;-2.55;81.14;99057.83;2162555;81;21615;-76
2022/11/21 05:04:45;;;;;;;53.73;26.07;;;;;;;-2.52;81.18;99051.11;2137812;82;21006;-76
2022/11/21 05:07:47;;;;;;;52.83;25.02;;;;;;;-2.48;81.27;99050.41;2168815;81;21608;-76
2022/11/21 05:14:07;;;;;;;57.78;26.40;;;;;;;-2.47;81.27;99043.00;2160756;81;21105;-75
2022/11/21 05:17:08;;;;;;;60.45;29.32;;;;;;;-2.46;81.54;99039.45;2142696;82;21571;-76
2022/11/21 05:20:10;;;;;;;56.00;28.20;;;;;;;-2.44;81.45;99042.78;2156043;81;21003;-77
2022/11/21 05:23:11;;;;;;;62.13;28.87;;;;;;;-2.40;81.75;99039.48;2163841;81;21124;-80
2022/11/21 05:26:12;;;;;;;58.73;27.42;;;;;;;-2.38;81.69;99040.20;2167246;81;20986;-76
2022/11/21 05:29:13;;;;;;;63.00;28.30;;;;;;;-2.36;81.66;99035.73;2166553;81;21528;-86
2022/11/21 05:32:14;;;;;;;58.52;27.00;;;;;;;-2.35;81.71;99043.88;2167161;81;20962;-76
2022/11/21 05:35:15;;;;;;;58.08;26.62;;;;;;;-2.36;81.62;99019.67;2170977;81;21045;-80
2022/11/21 05:38:16;;;;;;;59.93;27.67;;;;;;;-2.29;82.05;99014.84;2147082;81;21031;-76
2022/11/21 05:41:18;;;;;;;58.55;28.05;;;;;;;-2.24;81.96;99002.83;2174623;81;21481;-78
2022/11/21 05:44:19;;;;;;;61.25;27.07;;;;;;;-2.21;81.83;99006.50;2168787;81;21047;-76
2022/11/21 05:47:20;;;;;;;64.15;29.20;;;;;;;-2.19;81.86;99005.92;2168079;81;21002;-79
2022/11/21 05:50:21;;;;;;;;;;;;;;;-2.17;81.98;99004.84;2169796;81;21002;-75
2022/11/21 05:53:22;;;;;;;56.90;28.35;;;;;;;-2.14;81.96;98998.59;2122108;82;20111;-80
2022/11/21 05:56:23;;;;;;;59.93;29.77;;;;;;;-2.14;82.07;98989.49;2141060;81;21516;-78
2022/11/21 05:59:24;;;;;;;54.98;26.52;;;;;;;-2.12;81.99;98996.71;2158097;82;20998;-75
2022/11/21 06:05:46;;;;;;;60.58;27.37;;;;;;;-2.05;82.11;98979.73;2157995;82;21084;-84
2022/11/21 06:08:48;;;;;;;56.08;26.48;;;;;;;-2.04;82.02;98969.68;2161093;82;21623;-79
2022/11/21 06:11:48;;;;;;;56.45;26.62;;;;;;;-2.03;82.00;98977.83;2156118;82;21361;-80
2022/11/21 06:14:49;;;;;;;;;;;;;;;-2.02;82.07;98975.59;2159073;82;21021;-79
2022/11/21 06:17:50;;;;;;;53.83;26.55;;;;;;;-2.02;81.99;98966.50;2160764;82;20246;-78
2022/11/21 06:20:51;;;;;;;54.53;26.80;;;;;;;-2.01;82.04;98960.34;2129101;82;21061;-80
2022/11/21 06:23:55;;;;;;;57.40;26.33;;;;;;;-2.01;82.09;98958.23;2155630;82;21092;-80
2022/11/21 06:26:56;;;;;;;60.25;26.30;;;;;;;-1.98;82.20;98960.59;2156951;82;21017;-80
2022/11/21 06:29:57;;;;;;;50.15;24.72;;;;;;;-1.98;82.11;98963.19;2159024;82;21029;-84
2022/11/21 06:32:58;;;;;;;53.83;26.12;;;;;;;-1.98;82.06;98965.31;2193571;80;21004;-79
2022/11/21 06:36:06;;;;;;;50.28;23.10;;;;;;;-1.91;82.06;98967.82;2159059;82;21078;-81
2022/11/21 06:39:07;;;;;;;49.00;25.77;;;;;;;-1.89;82.28;98962.02;2162181;82;21556;-80
2022/11/21 06:42:08;;;;;;;49.55;24.65;;;;;;;-1.85;82.13;98949.15;2144715;82;21049;-80
2022/11/21 06:45:09;;;;;;;52.03;24.57;;;;;;;-1.79;82.03;98953.53;2157032;82;21579;-81
2022/11/21 06:48:10;;;;;;;53.78;25.37;;;;;;;-1.75;81.93;98951.05;2157666;82;21494;-81
2022/11/21 06:51:21;;;;;;;56.15;26.25;;;;;;;-1.73;81.85;98952.59;2196264;80;21048;-80
2022/11/21 06:54:22;;;;;;;47.70;24.07;;;;;;;-1.72;81.76;98948.20;2155631;82;21013;-87
2022/11/21 06:57:23;;;;;;;57.62;26.52;;;;;;;-1.72;81.81;98957.30;2166758;81;21020;-79
2022/11/21 07:00:26;;;;;;;53.17;25.70;;;;;;;-1.74;81.79;98960.52;2171284;82;20943;-78
2022/11/21 07:03:27;;;;;;;51.53;25.43;;;;;;;-1.72;81.90;98956.01;2167414;81;20966;-79
2022/11/21 07:06:28;;;;;;;51.55;24.25;;;;;;;-1.71;81.98;98956.38;2210804;79;21687;-81
2022/11/21 07:09:30;;;;;;;52.95;25.02;;;;;;;-1.65;82.06;98947.63;2218127;79;21084;-83
2022/11/21 07:15:54;;;;;;;49.42;24.30;;;;;;;-1.57;82.05;98941.02;2197453;80;21051;-80
2022/11/21 07:18:55;;;;;;;48.10;23.00;;;;;;;-1.55;82.11;98949.03;2194299;81;21528;-78
2022/11/21 07:21:56;;;;;;;44.90;22.93;;;;;;;-1.51;82.18;98947.05;2192978;80;21060;-83
2022/11/21 07:24:57;;;;;;;51.73;26.02;;;;;;;-1.49;82.20;98952.48;2192479;80;21050;-80
2022/11/21 07:28:00;;;;;;;51.23;25.02;;;;;;;-1.42;82.30;98949.75;2192080;80;20920;-80
2022/11/21 07:31:04;;;;;;;50.03;25.23;;;;;;;-1.32;82.44;98955.53;2196057;80;21895;-78
2022/11/21 07:34:05;;;;;;;48.17;25.02;;;;;;;-1.25;82.42;98955.42;2189759;80;21596;-81
2022/11/21 07:37:06;;;;;;;45.43;23.95;;;;;;;-1.18;82.40;98954.83;2196543;80;20967;-79
2022/11/21 07:40:08;;;;;;;47.93;24.72;;;;;;;-1.11;82.45;98949.13;2194042;80;21064;-81
2022/11/21 07:43:13;;;;;;;49.33;24.87;;;;;;;-1.00;82.63;98952.53;2194925;80;21003;-78
2022/11/21 07:46:14;;;;;;;48.90;23.73;;;;;;;-0.88;82.56;98942.09;2190064;80;21005;-78
2022/11/21 07:49:15;;;;;;;53.78;25.62;;;;;;;-0.84;82.36;98935.70;2194298;80;21663;-79
2022/11/21 07:52:16;;;;;;;45.50;23.85;;;;;;;-0.80;82.26;98938.40;2198859;80;21795;-86
2022/11/21 07:55:17;;;;;;;47.73;24.18;;;;;;;-0.68;82.46;98937.40;2192516;80;20991;-81
2022/11/21 07:58:18;;;;;;;54.65;26.40;;;;;;;-0.61;82.30;98942.48;2193218;80;21014;-78
2022/11/21 08:01:20;;;;;;;44.05;22.75;;;;;;;-0.49;82.37;98944.56;2194315;80;21544;-79
2022/11/21 08:04:21;;;;;;;41.23;22.48;;;;;;;-0.47;82.21;98944.79;2160936;82;21022;-80
2022/11/21 08:07:23;;;;;;;40.25;21.80;;;;;;;-0.40;82.23;98943.80;2168484;81;20970;-79
2022/11/21 08:10:24;;;;;;;44.77;22.70;;;;;;;-0.35;82.31;98936.91;2174432;81;21018;-79
2022/11/21 08:13:27;;;;;;;45.30;23.18;;;;;;;-0.27;82.29;98934.51;2195825;80;21020;-77
2022/11/21 08:16:31;;;;;;;45.08;23.70;;;;;;;-0.20;82.32;98929.12;2194332;80;21005;-78
2022/11/21 08:19:32;;;;;;;44.03;22.25;;;;;;;-0.13;82.39;98931.58;2193319;80;21065;-85
2022/11/21 08:22:38;;;;;;;43.85;20.55;;;;;;;-0.05;82.41;98936.98;2194345;80;21045;-80
2022/11/21 08:25:41;;;;;;;43.78;23.00;;;;;;;0.05;82.37;98935.73;2192931;80;21636;-81
2022/11/21 08:28:42;;;;;;;46.70;22.22;;;;;;;0.15;82.42;98934.49;2196474;80;21108;-82
2022/11/21 08:31:44;;;;;;;46.70;23.05;;;;;;;0.25;82.45;98943.17;2192829;80;21014;-81
2022/11/21 08:34:45;;;;;;;45.98;21.48;;;;;;;0.33;82.36;98938.62;2192370;80;21099;-79
2022/11/21 08:37:46;;;;;;;44.13;22.52;;;;;;;0.40;82.31;98935.85;2194068;80;20970;-80
2022/11/21 08:42:01;;;;;;;42.90;20.57;;;;;;;0.43;82.22;98931.19;2192023;80;21026;-79
2022/11/21 08:43:50;;;;;;;38.70;21.37;;;;;;;0.50;82.21;98941.09;2189601;80;21005;-79
2022/11/21 08:46:51;;;;;;;41.23;22.07;;;;;;;0.56;82.09;98940.56;2160818;81;21504;-80
2022/11/21 08:49:52;;;;;;;39.67;20.80;;;;;;;0.61;82.10;98941.00;2173393;81;21037;-79
2022/11/21 08:53:00;;;;;;;43.35;21.65;;;;;;;0.67;82.06;98935.25;2193144;80;21091;-80
2022/11/21 08:56:01;;;;;;;46.75;21.87;;;;;;;0.74;82.03;98935.08;2169591;81;21045;-83
2022/11/21 08:59:02;;;;;;;39.73;20.08;;;;;;;0.81;82.11;98930.95;2176966;80;21026;-79
2022/11/21 09:02:03;;;;;;;32.35;17.45;;;;;;;0.93;82.15;98924.31;2183091;81;21075;-81
2022/11/21 09:05:05;;;;;;;33.63;17.92;;;;;;;1.03;82.11;98918.64;2182850;81;21476;-87
2022/11/21 09:08:06;;;;;;;34.73;17.67;;;;;;;1.15;82.08;98928.48;2208126;80;21051;-80
2022/11/21 09:11:09;;;;;;;31.85;17.23;;;;;;;1.26;82.03;98923.12;2186675;79;21490;-80
2022/11/21 09:20:49;;;;;;;29.72;16.45;;;;;;;1.50;81.87;98927.97;2191251;80;21565;-80
2022/11/21 09:23:50;;;;;;;29.98;15.28;;;;;;;1.57;81.83;98932.97;2187499;80;21084;-81
2022/11/21 09:26:51;;;;;;;29.87;15.70;;;;;;;1.60;81.66;98934.48;2185941;80;21045;-81
2022/11/21 09:29:52;;;;;;;29.12;15.03;;;;;;;1.64;81.63;98932.77;2191648;80;20936;-81
2022/11/21 09:32:53;;;;;;;27.60;15.40;;;;;;;1.72;81.69;98930.30;2194068;80;20987;-86
2022/11/21 09:35:54;;;;;;;30.15;16.55;;;;;;;1.79;81.64;98932.67;2191263;80;20971;-81
2022/11/21 09:38:55;;;;;;;32.98;16.42;;;;;;;1.86;81.49;98926.88;2187761;80;21041;-80
2022/11/21 09:42:04;;;;;;;35.40;16.48;;;;;;;1.87;81.41;98925.94;2191451;80;21033;-79
2022/11/21 09:45:17;;;;;;;29.77;16.82;;;;;;;1.88;81.41;98928.88;2192454;80;20990;-80
2022/11/21 09:48:26;;;;;;;29.92;16.20;;;;;;;1.94;81.52;98930.93;2191219;80;21136;-79
2022/11/21 09:51:30;;;;;;;28.15;15.55;;;;;;;1.98;81.60;98924.47;2193752;80;21025;-79
2022/11/21 09:54:35;;;;;;;32.93;16.05;;;;;;;1.99;81.52;98925.63;2190705;80;21009;-80
2022/11/21 09:57:36;;;;;;;28.70;15.38;;;;;;;2.01;81.46;98925.49;2134030;81;21033;-79
2022/11/21 10:00:37;;;;;;;28.23;14.33;;;;;;;2.02;81.38;98925.83;2185053;80;21051;-81
2022/11/21 10:03:47;;;;;;;38.42;20.32;;;;;;;2.04;81.31;98926.52;2186663;80;21065;-80
2022/11/21 10:07:16;;;;;;;45.08;23.38;;;;;;;2.04;81.35;98931.75;2187483;80;20992;-77
2022/11/21 10:10:25;;;;;;;32.00;17.50;;;;;;;2.02;81.29;98933.67;2188199;80;21504;-79
2022/11/21 10:13:47;;;;;;;34.50;17.55;;;;;;;2.00;81.10;98939.55;2166576;80;21010;-81
2022/11/21 10:16:57;;;;;;;32.65;17.25;;;;;;;1.98;81.21;98934.45;2188137;80;21064;-79
2022/11/21 10:20:03;;;;;;;33.13;17.63;;;;;;;1.98;81.19;98937.06;2186886;80;21097;-79
2022/11/21 10:23:19;;;;;;;30.52;16.67;;;;;;;2.07;81.36;98942.42;2187932;80;21495;-81
2022/11/21 10:26:26;;;;;;;29.70;16.23;;;;;;;2.21;81.43;98932.32;2177000;80;21030;-84
2022/11/21 10:30:05;;;;;;;30.60;16.45;;;;;;;2.38;81.40;98927.31;2182603;80;21595;-81
2022/11/21 10:33:14;;;;;;;32.00;17.23;;;;;;;2.52;81.45;98927.33;2184564;80;21084;-80
2022/11/21 10:36:27;;;;;;;33.98;19.05;;;;;;;2.72;81.67;98924.95;2183734;80;21494;-81
2022/11/21 10:39:44;;;;;;;27.85;15.60;;;;;;;2.95;81.70;98925.38;2190303;80;21040;-80
2022/11/21 10:45:14;;;;;;;31.62;15.85;;;;;;;3.18;81.74;98931.51;2183768;80;21059;-80
2022/11/21 10:46:05;;;;;;;30.30;15.63;;;;;;;3.46;81.56;98921.29;2185466;80;21030;-80
2022/11/21 10:49:11;;;;;;;30.82;16.67;;;;;;;3.46;81.56;98921.29;2190031;80;21996;-80
2022/11/21 10:52:17;;;;;;;24.67;12.98;;;;;;;3.55;81.42;98916.47;2185460;80;21181;-88
2022/11/21 10:55:18;;;;;;;23.73;12.05;;;;;;;3.62;81.33;98917.98;2184130;80;21074;-80
2022/11/21 10:58:25;;;;;;;23.75;13.18;;;;;;;3.66;81.29;98909.32;2185429;80;21084;-79
2022/11/21 11:01:32;;;;;;;20.55;11.97;;;;;;;3.70;81.39;98918.06;2174803;81;21068;-80
2022/11/21 11:04:33;;;;;;;23.90;13.38;;;;;;;3.73;81.06;98919.56;2178681;80;20997;-79
2022/11/21 11:07:36;;;;;;;23.47;13.60;;;;;;;3.71;81.00;98907.89;2179721;80;21009;-79
2022/11/21 11:10:44;;;;;;;28.75;16.37;;;;;;;3.68;80.98;98915.25;2175625;80;21110;-81
2022/11/21 11:13:59;;;;;;;32.83;16.10;;;;;;;3.65;80.94;98912.93;2155056;81;21003;-79
2022/11/21 11:17:00;;;;;;;27.30;13.75;;;;;;;3.63;80.93;98927.99;2182351;80;21099;-87
2022/11/21 11:20:28;;;;;;;22.98;13.08;;;;;;;3.59;80.91;98932.72;2183244;81;21287;-80
2022/11/21 11:23:29;;;;;;;20.40;12.13;;;;;;;3.58;80.92;98930.59;2182081;80;21024;-80
2022/11/21 11:26:31;;;;;;;26.68;13.80;;;;;;;3.59;80.92;98928.79;2186812;80;21078;-80
2022/11/21 11:29:34;;;;;;;25.02;14.03;;;;;;;3.57;80.84;98925.48;2175470;81;21603;-81
2022/11/21 11:32:40;;;;;;;28.92;14.07;;;;;;;3.54;80.82;98923.17;2178587;80;20990;-81
2022/11/21 11:35:44;;;;;;;26.97;15.70;;;;;;;3.50;80.86;98933.14;2183468;80;20997;-80
2022/11/21 11:38:56;;;;;;;26.23;14.18;;;;;;;3.48;80.90;98930.33;2175869;80;21013;-87
2022/11/21 11:50:18;;;;;;;22.35;13.40;;;;;;;3.40;80.90;98931.08;2180121;80;21496;-79
2022/11/21 11:53:26;;;;;;;26.75;12.95;;;;;;;3.40;80.88;98932.38;2180217;81;20991;-79
2022/11/21 11:56:32;;;;;;;25.72;13.20;;;;;;;3.40;80.99;98932.88;2179699;81;21430;-79
2022/11/21 11:59:40;;;;;;;27.62;14.90;;;;;;;3.46;81.08;98929.65;2185240;80;21523;-79
2022/11/21 12:03:16;;;;;;;24.72;13.98;;;;;;;3.49;81.05;98931.50;2162135;80;21052;-78
2022/11/21 12:06:24;;;;;;;23.45;13.53;;;;;;;3.48;80.98;98931.15;2189210;80;21053;-80
2022/11/21 12:09:42;;;;;;;21.82;12.80;;;;;;;3.47;81.05;98932.63;2187922;80;22262;-79
2022/11/21 12:12:51;;;;;;;24.37;13.20;;;;;;;3.44;81.06;98935.06;2189208;80;20983;-79
2022/11/21 12:15:57;;;;;;;;;;;;;;;3.41;81.02;98930.12;2187134;80;21022;-80
2022/11/21 12:19:09;;;;;;;24.20;12.20;;;;;;;3.40;81.08;98935.50;2185657;80;20165;-80
2022/11/21 12:22:11;;;;;;;18.62;11.30;;;;;;;3.39;81.12;98933.86;2193699;80;21108;-79
2022/11/21 12:25:13;;;;;;;22.87;12.90;;;;;;;3.43;81.21;98942.57;2164309;80;21042;-79
2022/11/21 12:28:44;;;;;;;25.32;12.00;;;;;;;3.50;81.25;98944.13;2187904;80;20985;-79
2022/11/21 12:32:10;;;;;;;;;;;;;;;3.52;81.18;98949.56;2187265;80;21595;-80
2022/11/21 12:35:40;;;;;;;36.10;19.02;;;;;;;3.54;81.25;98949.39;2190438;80;20213;-80
2022/11/21 12:39:36;;;;;;;36.95;16.77;;;;;;;3.55;81.19;98945.81;2189534;80;21053;-79
2022/11/21 12:42:54;;;;;;;23.27;12.45;;;;;;;3.54;81.11;98954.15;2098353;80;21139;-79
2022/11/21 12:46:02;;;;;;;28.52;14.65;;;;;;;3.52;81.25;98962.67;2158912;80;21027;-80
2022/11/21 12:56:19;;;;;;;22.15;11.90;;;;;;;3.47;81.25;98976.72;2189996;80;21025;-80
2022/11/21 12:59:23;;;;;;;39.80;17.82;;;;;;;3.46;81.30;98986.03;2136902;81;21073;-81
2022/11/21 13:02:51;;;;;;;42.27;19.00;;;;;;;3.38;81.31;98992.05;2175560;81;21028;-79
2022/11/21 13:05:55;;;;;;;20.65;10.88;;;;;;;3.35;81.46;98992.31;2139749;81;21516;-82
2022/11/21 13:09:01;;;;;;;25.62;13.50;;;;;;;3.33;81.53;98995.59;2179502;81;20963;-78
2022/11/21 13:12:10;;;;;;;41.18;19.37;;;;;;;3.29;81.58;98997.66;2201415;80;21070;-78
2022/11/21 13:15:32;;;;;;;37.95;18.50;;;;;;;3.23;81.53;98998.25;2160706;81;21046;-78
2022/11/21 13:18:41;;;;;;;35.85;18.85;;;;;;;3.16;81.52;99012.12;2215002;79;21029;-78
2022/11/21 13:21:48;;;;;;;23.35;12.85;;;;;;;3.10;81.56;99010.91;2173196;82;21037;-87
2022/11/21 13:24:55;;;;;;;25.37;14.15;;;;;;;3.05;81.60;99016.57;2176210;81;21064;-78
2022/11/21 13:28:22;;;;;;;25.92;14.10;;;;;;;3.00;81.58;99017.98;2208328;79;21435;-79
2022/11/21 13:31:32;;;;;;;30.80;16.32;;;;;;;2.97;81.65;99026.13;2176874;82;21638;-79
2022/11/21 13:34:37;;;;;;;33.40;18.77;;;;;;;2.94;81.76;99027.73;2178425;81;21057;-79
2022/11/21 13:38:11;;;;;;;29.45;17.23;;;;;;;2.88;81.72;99038.30;2180848;81;20934;-79
2022/11/21 13:44:56;;;;;;;30.82;16.00;;;;;;;2.75;81.85;99036.48;2174952;81;21555;-78
2022/11/21 13:48:09;;;;;;;28.38;15.28;;;;;;;2.66;81.85;99044.23;2213373;79;21076;-79
2022/11/21 13:51:46;;;;;;;30.32;15.55;;;;;;;2.63;81.92;99041.89;2177472;80;21921;-79
2022/11/21 13:55:33;;;;;;;28.75;16.10;;;;;;;2.58;82.10;99047.22;2177069;80;21088;-79
2022/11/21 13:58:42;;;;;;;32.75;18.70;;;;;;;2.51;82.14;99048.27;2177108;81;21040;-78
2022/11/21 14:02:19;;;;;;;32.33;16.75;;;;;;;2.45;82.27;99044.92;2188283;80;21020;-79
2022/11/21 14:05:58;;;;;;;25.72;15.63;;;;;;;2.39;82.36;99058.09;2165168;81;21056;-79
2022/11/21 14:09:19;;;;;;;28.15;16.20;;;;;;;2.36;82.47;99064.06;2192766;80;21053;-78
2022/11/21 14:12:37;;;;;;;33.05;17.50;;;;;;;2.34;82.56;99071.25;2190344;80;21814;-79
2022/11/21 14:16:00;;;;;;;29.40;15.32;;;;;;;2.32;82.67;99075.80;2195397;80;21016;-79
2022/11/21 14:19:02;;;;;;;28.12;14.90;;;;;;;2.23;82.52;99078.28;2191232;80;21073;-80
2022/11/21 14:22:04;;;;;;;23.62;13.50;;;;;;;2.17;82.61;99077.53;2198107;80;20993;-79
2022/11/21 14:25:18;;;;;;;21.67;12.10;;;;;;;2.10;82.59;99074.28;2159329;81;21657;-78
2022/11/21 14:28:27;;;;;;;24.72;14.33;;;;;;;2.05;82.74;99075.17;2193116;80;21332;-78
2022/11/21 14:31:28;;;;;;;26.48;15.98;;;;;;;2.00;82.73;99078.23;2193921;80;21492;-87
2022/11/21 14:34:31;;;;;;;26.57;15.43;;;;;;;1.96;82.79;99083.38;2193566;80;21016;-81
2022/11/21 14:37:33;;;;;;;26.20;14.75;;;;;;;1.91;82.94;99085.56;2193926;80;21000;-78
2022/11/21 14:40:34;;;;;;;27.05;15.68;;;;;;;1.84;83.07;99089.22;2192113;80;21061;-82
2022/11/21 14:43:35;;;;;;;34.50;19.57;;;;;;;1.78;83.31;99089.28;2158645;81;21540;-80
2022/11/21 14:46:39;;;;;;;28.45;16.10;;;;;;;1.74;83.25;99093.11;2188673;80;20969;-77
2022/11/21 14:49:50;;;;;;;25.82;15.48;;;;;;;1.71;83.32;99093.87;2194285;80;21064;-80
2022/11/21 14:52:56;;;;;;;36.70;19.02;;;;;;;1.67;83.71;99090.70;2194284;80;21057;-77